METAR|ÜBERSETZT|TAF
EDHK 291550Z 25017G28KT 8000 -DZRA OVC035 14/14 Q1006
Login|Impressum|Kontakt



Fallschirmspringen über Kiel


Das absolute Erlebnis: 40 Sekunden 'Dive' in die Freiheit des Universums bevor der Fallschirm geöffnet wird und man nach berauschender Schirmfahrt wieder landet.
Im Freifall über der Kieler Förde, und dann am geöffneten Schirm diesen einmaligen Ausblick genießen. Es ist ganz einfach - Du hast zwei Möglichkeiten Dir diesen Traum zu erfüllen: Tandem und Ausbildung. Natürlich sind auch alle lizensierten Springer bei uns herzlichst willkommen.

Seit diesem Jahr haben wir eine besonders leise und schnelle Cessna 182 im LSV. Je vier Springer werden in ca. 20 Minuten auf 3000m gebracht. Schon der Flug so nah am Wasser zwischen Kanal und Förde ist etwas ganz Besonderes. Bei guter Sicht kannst Du bis tief nach Dänemark hinein schauen.

Schau einfach mal rein bei uns im Luftsportverein und informiere Dich vor Ort - Du bist jederzeit herzlich willkommen.
Tandem Info: 
0431 - 799 32 53 
tandem@skydive-kiel.de 
Ausbildung Info: 
0431 - 799 32 55 
ausbildung@skydive-kiel.de 
Packraum: 
0431 - 321 061 
info@skydive-kiel.de 

Only Skydivers Know Why Birds Sing!